Aluminio, Brazil
Current Conditions -  °F | °C
As of 2:00 PM on Friday 31 Oct 2014 (Local Time) from SBKP Reporting Station
Scattered Clouds Scattered Clouds  
Wind Chill: 90°   Ceiling: Unl
Heat Index: 90°   Visibility: 6mi
Dew Point: 57°   Wind: 13mph
Humidity: 33%   Direction: 330°NNW
Pressure: 29.97"   Gusts: NA
Location:  23.54°S, 47.25°W
Report Text: SBKP 311600Z 33011KT 9999 SCT045 32/14 Q1015
Loading
Personal Weather Stations






























Interactive Weather Map
Tropical Storm Tracking
New forecast layout! Learn more

10-Day Weather Forecast

Advertisements
Track Severe Weather on mobile